Time;durP1;ratioP1;P1;durP2;ratioP2;P2;SDS_P1;SDS_P2;PMS_P1;PMS_P2;Temp;Humidity;BMP_temperature;BMP_pressure;BME280_temperature;BME280_humidity;BME280_pressure;Samples;Min_cycle;Max_cycle;Signal;HPM_P1;HPM_P2
2021/03/11 00:01:03;;;;;;;13.27;10.43;;;11.00;51.00;;;;;;5113838;28;20994;-52
2021/03/11 00:03:30;;;;;;;9.63;8.70;;;10.90;51.50;;;;;;5114031;28;20628;-53
2021/03/11 00:05:56;;;;;;;10.00;8.00;;;11.00;52.30;;;;;;5113990;28;20639;-52
2021/03/11 00:08:24;;;;;;;11.83;9.43;;;10.90;52.70;;;;;;5113590;28;21210;-52
2021/03/11 00:10:51;;;;;;;14.10;10.17;;;10.80;53.50;;;;;;5114232;28;20692;-52
2021/03/11 00:13:18;;;;;;;11.30;8.90;;;10.80;54.00;;;;;;5114181;28;20628;-52
2021/03/11 00:15:44;;;;;;;10.53;9.53;;;10.70;54.40;;;;;;5114209;28;20647;-51
2021/03/11 00:18:13;;;;;;;10.07;9.03;;;10.80;55.60;;;;;;5114058;28;20706;-52
2021/03/11 00:20:40;;;;;;;11.40;9.33;;;10.70;55.80;;;;;;5114220;28;20627;-52
2021/03/11 00:23:07;;;;;;;10.00;8.80;;;10.60;55.90;;;;;;5113816;28;20700;-52
2021/03/11 00:25:35;;;;;;;10.30;9.23;;;10.60;56.90;;;;;;5113571;28;21220;-52
2021/03/11 00:28:02;;;;;;;9.30;7.43;;;10.60;57.40;;;;;;5112540;28;21061;-52
2021/03/11 00:30:29;;;;;;;11.63;9.83;;;10.60;57.60;;;;;;5112725;28;20631;-53
2021/03/11 00:32:56;;;;;;;9.53;8.47;;;10.60;57.80;;;;;;5112214;28;20627;-53
2021/03/11 00:35:23;;;;;;;14.83;9.57;;;10.70;58.10;;;;;;5111597;28;21241;-53
2021/03/11 00:37:49;;;;;;;10.93;9.03;;;10.70;58.30;;;;;;5112312;28;20647;-54
2021/03/11 00:40:18;;;;;;;12.63;9.60;;;10.70;58.50;;;;;;5113314;28;20685;-53
2021/03/11 00:42:45;;;;;;;11.53;9.40;;;10.70;58.30;;;;;;5113270;28;20626;-54
2021/03/11 00:45:12;;;;;;;10.47;9.37;;;10.80;58.90;;;;;;5111618;28;20647;-53
2021/03/11 00:47:39;;;;;;;10.50;9.40;;;10.80;58.60;;;;;;5111803;28;20731;-52
2021/03/11 00:50:07;;;;;;;10.97;8.70;;;10.80;58.50;;;;;;5112600;28;20627;-53
2021/03/11 00:52:34;;;;;;;11.53;9.70;;;10.70;58.60;;;;;;5112845;28;20759;-53
2021/03/11 00:55:01;;;;;;;12.97;9.37;;;10.70;59.20;;;;;;5112744;28;20704;-53
2021/03/11 00:57:27;;;;;;;13.30;8.70;;;10.50;59.80;;;;;;5111864;28;20651;-52
2021/03/11 00:59:55;;;;;;;11.57;9.07;;;10.50;60.90;;;;;;5112897;28;20628;-51
2021/03/11 01:02:22;;;;;;;11.50;10.30;;;10.50;61.20;;;;;;5111835;28;20676;-51
2021/03/11 01:04:48;;;;;;;13.00;8.80;;;10.50;62.20;;;;;;5112753;28;20619;-52
2021/03/11 01:07:16;;;;;;;13.17;9.80;;;10.50;63.50;;;;;;5112527;28;20619;-52
2021/03/11 01:09:43;;;;;;;13.53;10.63;;;10.40;64.10;;;;;;5112688;28;20619;-51
2021/03/11 01:12:12;;;;;;;12.83;9.77;;;10.40;65.20;;;;;;5111420;28;20631;-50
2021/03/11 01:14:39;;;;;;;14.40;9.40;;;10.40;66.10;;;;;;5112015;28;20663;-51
2021/03/11 01:17:06;;;;;;;14.83;10.77;;;10.20;66.60;;;;;;5111331;28;20692;-50
2021/03/11 01:19:33;;;;;;;11.67;8.17;;;10.30;67.60;;;;;;5111455;28;20619;-51
2021/03/11 01:22:00;;;;;;;9.07;7.20;;;10.30;67.70;;;;;;5112539;28;20631;-53
2021/03/11 01:24:26;;;;;;;12.43;8.07;;;10.30;68.10;;;;;;5113366;28;20619;-52
2021/03/11 01:26:53;;;;;;;13.90;8.70;;;10.40;67.60;;;;;;5112505;28;21017;-52
2021/03/11 01:29:20;;;;;;;10.70;8.33;;;10.40;67.00;;;;;;5111470;28;20662;-52
2021/03/11 01:31:47;;;;;;;10.10;8.30;;;10.40;66.60;;;;;;5112009;28;20630;-52
2021/03/11 01:34:14;;;;;;;11.87;8.80;;;10.40;66.20;;;;;;5111795;28;21061;-51
2021/03/11 01:36:41;;;;;;;8.90;7.63;;;10.40;66.20;;;;;;5111668;28;21200;-52
2021/03/11 01:39:08;;;;;;;10.93;8.20;;;10.50;64.70;;;;;;5111673;28;21272;-51
2021/03/11 01:41:35;;;;;;;9.67;7.30;;;10.50;63.80;;;;;;5111739;28;20627;-52
2021/03/11 01:44:01;;;;;;;11.37;7.37;;;10.50;63.00;;;;;;5111924;28;21266;-52
2021/03/11 01:46:28;;;;;;;7.77;6.93;;;10.50;62.70;;;;;;5109011;28;20658;-52
2021/03/11 01:48:55;;;;;;;8.30;7.10;;;10.50;62.40;;;;;;5111205;28;20644;-51
2021/03/11 01:51:23;;;;;;;12.10;6.30;;;10.50;62.30;;;;;;5111802;28;20631;-51
2021/03/11 01:53:49;;;;;;;8.37;6.83;;;10.50;62.10;;;;;;5111527;28;21183;-52
2021/03/11 01:56:16;;;;;;;8.97;6.30;;;10.50;61.20;;;;;;5111659;28;20684;-51
2021/03/11 01:58:43;;;;;;;6.10;5.50;;;10.60;60.80;;;;;;5111462;28;20705;-50
2021/03/11 02:01:10;;;;;;;6.93;5.53;;;10.60;60.60;;;;;;5111581;28;20631;-52
2021/03/11 02:03:37;;;;;;;6.60;5.37;;;10.60;60.60;;;;;;5111992;28;20627;-51
2021/03/11 02:06:04;;;;;;;10.93;7.60;;;10.60;60.40;;;;;;5111987;28;20901;-52
2021/03/11 02:08:31;;;;;;;6.60;6.00;;;10.60;60.00;;;;;;5111460;28;21065;-51
2021/03/11 02:10:58;;;;;;;7.43;6.67;;;10.60;59.90;;;;;;5115091;27;20680;-51
2021/03/11 02:13:35;;;;;;;7.13;5.33;;;10.60;59.80;;;;;;5115108;27;20654;-51
2021/03/11 02:16:07;;;;;;;9.37;6.20;;;10.60;60.30;;;;;;5112918;28;20643;-51
2021/03/11 02:18:36;;;;;;;11.07;8.20;;;10.60;60.00;;;;;;5114539;28;20732;-51
2021/03/11 02:21:04;;;;;;;10.40;6.33;;;10.70;59.50;;;;;;5115706;27;20623;-52
2021/03/11 02:24:02;;;;;;;5.40;4.57;;;10.60;59.20;;;;;;5115385;28;20658;-52
2021/03/11 02:26:40;;;;;;;10.67;8.03;;;10.60;58.90;;;;;;5116964;28;20619;-52
2021/03/11 02:29:08;;;;;;;9.97;7.30;;;10.70;59.00;;;;;;5127526;28;20735;-52
2021/03/11 02:31:36;;;;;;;9.30;6.03;;;10.70;58.80;;;;;;5112393;28;20628;-50
2021/03/11 02:34:04;;;;;;;12.70;8.20;;;10.70;58.90;;;;;;5107836;28;20620;-52
2021/03/11 02:36:31;;;;;;;11.80;8.50;;;10.60;58.80;;;;;;5108638;28;20626;-51
2021/03/11 02:38:58;;;;;;;10.57;8.30;;;10.60;58.70;;;;;;5132328;28;20655;-54
2021/03/11 02:41:24;;;;;;;6.70;6.00;;;10.70;59.40;;;;;;5129340;28;20628;-52
2021/03/11 02:43:51;;;;;;;7.73;6.93;;;10.70;59.40;;;;;;5121534;28;20695;-52
2021/03/11 02:46:19;;;;;;;11.47;8.43;;;10.60;59.80;;;;;;5113452;28;20623;-51
2021/03/11 02:48:47;;;;;;;9.10;6.70;;;10.60;60.00;;;;;;5113732;28;20639;-52
2021/03/11 02:51:14;;;;;;;10.37;8.47;;;10.60;60.10;;;;;;5114304;28;21197;-52
2021/03/11 02:53:41;;;;;;;13.10;10.90;;;10.60;60.30;;;;;;5114523;28;20646;-51
2021/03/11 02:56:08;;;;;;;9.40;7.30;;;10.60;60.60;;;;;;5114103;28;20681;-51
2021/03/11 02:58:35;;;;;;;10.73;8.10;;;10.70;59.80;;;;;;5113927;27;20655;-51
2021/03/11 03:01:01;;;;;;;10.10;9.07;;;10.60;59.50;;;;;;5113061;28;20675;-53
2021/03/11 03:03:29;;;;;;;10.77;8.23;;;10.70;59.70;;;;;;5114144;27;20676;-53
2021/03/11 03:05:56;;;;;;;7.53;6.40;;;10.70;59.60;;;;;;5113930;28;20743;-51
2021/03/11 03:08:23;;;;;;;9.20;7.10;;;10.70;59.20;;;;;;5113406;28;20708;-52
2021/03/11 03:10:51;;;;;;;8.63;7.67;;;10.70;58.90;;;;;;5113389;28;20663;-52
2021/03/11 03:13:18;;;;;;;6.30;5.30;;;10.70;58.80;;;;;;5098802;28;20628;-52
2021/03/11 03:15:44;;;;;;;8.40;6.47;;;10.70;58.70;;;;;;5108602;28;21268;-52
2021/03/11 03:18:11;;;;;;;9.70;7.77;;;10.70;58.80;;;;;;5113673;28;20667;-52
2021/03/11 03:20:39;;;;;;;8.80;7.13;;;10.70;58.80;;;;;;5113007;28;21245;-51
2021/03/11 03:23:06;;;;;;;8.43;6.90;;;10.70;58.30;;;;;;5113764;28;21032;-50
2021/03/11 03:25:33;;;;;;;10.03;7.93;;;10.70;58.20;;;;;;5113288;28;20661;-51
2021/03/11 03:28:01;;;;;;;10.30;6.90;;;10.70;57.70;;;;;;5125639;22;20673;-56
2021/03/11 03:30:28;;;;;;;7.93;7.07;;;10.70;57.80;;;;;;5089962;28;20708;-54
2021/03/11 03:32:55;;;;;;;8.20;6.93;;;10.70;57.90;;;;;;5091223;28;20685;-55
2021/03/11 03:35:22;;;;;;;10.47;6.47;;;10.70;57.90;;;;;;5080548;28;20645;-55
2021/03/11 03:37:50;;;;;;;15.50;6.83;;;10.70;58.20;;;;;;5071031;28;20744;-55
2021/03/11 03:40:17;;;;;;;9.17;6.43;;;10.70;58.60;;;;;;5071524;28;20629;-55
2021/03/11 03:42:47;;;;;;;10.03;7.37;;;10.70;58.30;;;;;;5070998;28;20633;-55
2021/03/11 03:45:18;;;;;;;10.53;6.40;;;10.60;58.40;;;;;;5070674;28;21023;-55
2021/03/11 03:47:44;;;;;;;9.93;7.07;;;10.60;58.50;;;;;;5070519;28;20629;-55
2021/03/11 03:50:11;;;;;;;8.90;6.47;;;10.60;58.80;;;;;;5070368;28;20663;-55
2021/03/11 03:52:38;;;;;;;9.20;7.17;;;10.70;59.30;;;;;;5071139;28;20652;-54
2021/03/11 03:55:07;;;;;;;7.70;6.90;;;10.70;59.20;;;;;;5070036;28;20817;-54
2021/03/11 03:57:34;;;;;;;11.47;8.27;;;10.70;59.70;;;;;;5070911;28;20644;-56
2021/03/11 04:00:01;;;;;;;11.50;7.30;;;10.70;59.80;;;;;;5069063;28;20695;-55
2021/03/11 04:02:27;;;;;;;8.00;6.20;;;10.70;59.90;;;;;;5068828;28;20633;-54
2021/03/11 04:04:54;;;;;;;5.70;4.13;;;10.80;59.70;;;;;;5070182;28;20682;-54
2021/03/11 04:07:22;;;;;;;9.20;6.90;;;10.80;59.50;;;;;;5070684;28;20686;-54
2021/03/11 04:09:48;;;;;;;7.20;6.37;;;10.80;59.50;;;;;;5070617;28;20652;-54
2021/03/11 04:12:16;;;;;;;7.43;5.43;;;10.80;59.20;;;;;;5070544;28;20624;-55
2021/03/11 04:14:43;;;;;;;8.17;6.23;;;10.80;59.70;;;;;;5070423;28;20684;-54
2021/03/11 04:17:10;;;;;;;10.40;7.30;;;10.80;59.20;;;;;;5066057;28;20630;-54
2021/03/11 04:19:37;;;;;;;9.17;7.17;;;10.80;59.20;;;;;;5058342;28;20649;-54
2021/03/11 04:22:03;;;;;;;5.70;4.90;;;10.80;59.10;;;;;;5070609;28;20656;-54
2021/03/11 04:24:30;;;;;;;7.17;6.17;;;10.80;59.20;;;;;;5070003;28;21032;-54
2021/03/11 04:26:58;;;;;;;6.83;5.80;;;10.80;59.40;;;;;;5070299;28;20686;-54
2021/03/11 04:29:26;;;;;;;7.43;6.50;;;10.80;59.60;;;;;;5083200;28;20741;-54
2021/03/11 04:31:53;;;;;;;10.10;7.53;;;10.80;59.90;;;;;;5088218;28;20631;-55
2021/03/11 04:34:19;;;;;;;7.20;5.30;;;10.80;59.90;;;;;;5078107;28;20649;-55
2021/03/11 04:36:46;;;;;;;7.97;6.47;;;10.80;60.00;;;;;;5084149;28;21200;-54
2021/03/11 04:39:13;;;;;;;9.70;7.10;;;10.80;61.00;;;;;;5088489;28;21220;-54
2021/03/11 04:41:40;;;;;;;7.03;5.30;;;10.90;61.30;;;;;;5089399;28;21016;-56
2021/03/11 04:44:07;;;;;;;11.73;8.20;;;10.80;61.60;;;;;;5090190;28;20628;-54
2021/03/11 04:46:34;;;;;;;7.70;6.87;;;10.80;61.70;;;;;;5073175;28;20635;-54
2021/03/11 04:49:02;;;;;;;9.73;7.90;;;10.80;62.00;;;;;;5089630;28;21063;-54
2021/03/11 04:51:29;;;;;;;8.07;6.87;;;10.90;62.70;;;;;;5089632;28;20711;-54
2021/03/11 04:53:56;;;;;;;8.10;5.20;;;10.90;63.10;;;;;;5089448;28;20640;-54
2021/03/11 04:56:23;;;;;;;8.40;6.80;;;10.90;62.70;;;;;;5089489;28;20713;-54
2021/03/11 04:58:50;;;;;;;15.30;6.83;;;10.90;63.10;;;;;;5088398;28;20707;-54
2021/03/11 05:01:21;;;;;;;9.67;7.07;;;10.90;63.50;;;;;;5089690;28;21247;-55
2021/03/11 05:03:57;;;;;;;11.70;7.40;;;10.90;64.30;;;;;;5090288;28;20617;-55
2021/03/11 05:06:27;;;;;;;8.17;7.03;;;10.90;64.90;;;;;;5070260;28;21127;-55
2021/03/11 05:08:59;;;;;;;10.80;7.77;;;10.90;65.60;;;;;;5068404;28;20676;-54
2021/03/11 05:11:25;;;;;;;9.50;6.77;;;10.90;66.50;;;;;;5077638;28;20635;-55
2021/03/11 05:13:52;;;;;;;6.50;5.87;;;11.00;67.50;;;;;;5086078;28;20628;-55
2021/03/11 05:16:19;;;;;;;9.20;7.40;;;10.90;68.20;;;;;;5089914;28;21007;-55
2021/03/11 05:18:46;;;;;;;7.37;6.67;;;10.90;69.10;;;;;;5089272;28;20652;-55
2021/03/11 05:21:13;;;;;;;8.03;6.13;;;11.00;69.30;;;;;;5090008;28;20689;-54
2021/03/11 05:23:40;;;;;;;7.43;5.97;;;11.00;69.50;;;;;;5089807;28;20624;-55
2021/03/11 05:26:07;;;;;;;7.83;7.00;;;11.00;70.20;;;;;;5089639;28;20913;-54
2021/03/11 05:28:34;;;;;;;7.60;6.73;;;11.00;70.80;;;;;;5089722;28;21207;-54
2021/03/11 05:31:01;;;;;;;15.57;6.87;;;11.00;70.90;;;;;;5089921;28;20636;-54
2021/03/11 05:33:27;;;;;;;8.57;7.40;;;11.00;71.20;;;;;;5088718;28;20941;-53
2021/03/11 05:35:54;;;;;;;7.80;6.70;;;10.90;71.70;;;;;;5085893;28;20652;-54
2021/03/11 05:38:22;;;;;;;10.03;7.20;;;11.00;72.30;;;;;;5077118;28;20653;-54
2021/03/11 05:40:51;;;;;;;6.63;5.50;;;11.00;72.40;;;;;;5080139;28;20650;-54
2021/03/11 05:43:18;;;;;;;8.03;5.87;;;11.00;73.30;;;;;;5090329;28;20789;-55
2021/03/11 05:45:45;;;;;;;9.77;6.17;;;11.00;72.90;;;;;;5094045;28;20650;-54
2021/03/11 05:48:14;;;;;;;6.80;6.13;;;11.00;73.60;;;;;;5093286;28;20737;-54
2021/03/11 05:50:41;;;;;;;7.60;5.87;;;11.00;73.60;;;;;;5092504;28;20731;-55
2021/03/11 05:53:10;;;;;;;6.70;6.00;;;10.90;74.00;;;;;;5093459;28;20668;-54
2021/03/11 05:55:37;;;;;;;8.93;8.03;;;10.90;74.90;;;;;;5093450;28;20663;-55
2021/03/11 05:58:04;;;;;;;7.53;6.27;;;10.90;74.90;;;;;;5092604;28;20735;-54
2021/03/11 06:00:31;;;;;;;8.70;7.13;;;11.00;75.50;;;;;;5093269;28;20685;-54
2021/03/11 06:02:59;;;;;;;10.40;4.63;;;11.00;75.40;;;;;;5092855;28;21214;-55
2021/03/11 06:05:26;;;;;;;6.93;5.20;;;11.00;75.50;;;;;;5087818;28;21065;-58
2021/03/11 06:07:53;;;;;;;6.97;4.97;;;11.00;76.00;;;;;;5093173;28;21192;-54
2021/03/11 06:10:21;;;;;;;7.90;7.10;;;10.90;76.40;;;;;;5093719;28;20701;-54
2021/03/11 06:12:49;;;;;;;7.00;5.30;;;10.90;77.00;;;;;;5093748;28;21190;-54
2021/03/11 06:15:21;;;;;;;7.13;6.13;;;10.90;77.40;;;;;;5092724;28;21169;-54
2021/03/11 06:17:48;;;;;;;7.07;6.37;;;11.00;77.70;;;;;;5089584;28;20636;-54
2021/03/11 06:20:15;;;;;;;8.27;5.60;;;11.00;78.30;;;;;;5092836;28;21188;-55
2021/03/11 06:22:42;;;;;;;6.97;5.87;;;10.90;78.90;;;;;;5093379;28;20620;-55
2021/03/11 06:25:09;;;;;;;5.63;5.13;;;10.90;79.70;;;;;;5091920;28;20709;-56
2021/03/11 06:27:37;;;;;;;5.30;4.63;;;11.00;80.30;;;;;;5092722;28;20623;-55
2021/03/11 06:30:09;;;;;;;6.20;5.60;;;10.90;80.20;;;;;;5093144;28;20619;-56
2021/03/11 06:32:54;;;;;;;7.10;5.90;;;11.00;81.10;;;;;;5092334;28;20620;-56
2021/03/11 06:35:24;;;;;;;4.60;3.90;;;11.00;81.30;;;;;;5093968;28;21051;-55
2021/03/11 06:37:51;;;;;;;5.87;5.30;;;11.00;81.00;;;;;;5092171;28;20612;-56
2021/03/11 06:40:24;;;;;;;3.90;3.33;;;11.00;81.20;;;;;;5093581;28;20635;-55
2021/03/11 06:42:52;;;;;;;6.80;4.10;;;11.00;81.80;;;;;;5080636;28;20643;-55
2021/03/11 06:45:22;;;;;;;5.90;5.30;;;11.00;81.80;;;;;;5086007;28;21182;-57
2021/03/11 06:47:49;;;;;;;6.57;4.23;;;11.10;82.60;;;;;;5083655;28;20723;-54
2021/03/11 06:50:17;;;;;;;6.03;5.43;;;11.10;81.80;;;;;;5082982;28;20651;-55
2021/03/11 06:53:02;;;;;;;8.60;6.40;;;11.10;82.30;;;;;;5089909;28;21195;-55
2021/03/11 06:55:29;;;;;;;4.60;4.17;;;11.20;82.30;;;;;;5077288;28;20664;-55
2021/03/11 06:57:57;;;;;;;4.53;4.13;;;11.20;82.70;;;;;;5072620;28;20633;-54
2021/03/11 07:00:26;;;;;;;3.80;2.73;;;11.20;82.50;;;;;;5085072;28;20643;-54
2021/03/11 07:02:54;;;;;;;6.17;4.40;;;11.20;82.80;;;;;;5087615;28;20669;-54
2021/03/11 07:05:22;;;;;;;4.00;3.00;;;11.10;83.20;;;;;;5086144;28;20972;-54
2021/03/11 07:07:49;;;;;;;6.47;5.67;;;11.10;83.80;;;;;;5083587;28;20620;-55
2021/03/11 07:10:26;;;;;;;5.20;4.47;;;11.10;84.00;;;;;;5092280;28;20662;-55
2021/03/11 07:12:54;;;;;;;6.20;5.60;;;11.10;85.30;;;;;;5080011;28;20622;-55
2021/03/11 07:15:22;;;;;;;6.23;3.03;;;11.10;85.00;;;;;;5092794;28;20636;-55
2021/03/11 07:17:50;;;;;;;7.10;4.83;;;11.10;84.90;;;;;;5083226;28;20756;-56
2021/03/11 07:20:21;;;;;;;4.97;3.03;;;11.10;85.00;;;;;;5081973;28;20757;-55
2021/03/11 07:23:03;;;;;;;3.60;3.13;;;11.20;85.00;;;;;;5081320;28;20620;-55
2021/03/11 07:25:31;;;;;;;5.20;4.70;;;11.20;85.00;;;;;;5091470;28;20665;-55
2021/03/11 07:27:59;;;;;;;4.03;2.53;;;11.20;85.20;;;;;;5091507;28;20620;-55
2021/03/11 07:30:26;;;;;;;3.73;2.90;;;11.30;85.20;;;;;;5091356;28;20631;-54
2021/03/11 07:32:58;;;;;;;3.47;3.20;;;11.30;86.20;;;;;;5091760;28;21184;-55
2021/03/11 07:35:26;;;;;;;7.30;3.00;;;11.30;85.20;;;;;;5089913;28;21210;-55
2021/03/11 07:37:53;;;;;;;3.40;3.10;;;11.40;85.80;;;;;;5090620;28;21233;-55
2021/03/11 07:40:20;;;;;;;3.53;3.00;;;11.30;86.00;;;;;;5091064;28;20628;-56
2021/03/11 07:42:47;;;;;;;5.27;3.70;;;11.40;86.70;;;;;;5091254;28;21079;-54
2021/03/11 07:45:14;;;;;;;3.10;2.83;;;11.40;86.60;;;;;;5091662;28;20628;-53
2021/03/11 07:47:41;;;;;;;3.80;3.10;;;11.50;87.00;;;;;;5089355;28;20662;-53
2021/03/11 07:50:11;;;;;;;5.30;3.30;;;11.50;86.90;;;;;;5090945;28;20620;-54
2021/03/11 07:52:39;;;;;;;11.47;3.30;;;11.60;86.80;;;;;;5091443;28;20624;-53
2021/03/11 07:55:07;;;;;;;2.90;2.00;;;11.60;87.00;;;;;;5091270;28;20734;-53
2021/03/11 07:57:36;;;;;;;8.43;4.40;;;11.60;87.40;;;;;;5085875;28;21194;-54
2021/03/11 08:00:04;;;;;;;4.80;3.57;;;11.50;88.20;;;;;;5070421;28;20649;-54
2021/03/11 08:02:31;;;;;;;3.93;3.53;;;11.50;88.50;;;;;;5070794;28;20676;-55
2021/03/11 08:04:58;;;;;;;3.83;3.43;;;11.50;88.60;;;;;;5088866;28;21176;-56
2021/03/11 08:07:26;;;;;;;3.60;3.30;;;11.50;88.90;;;;;;5086888;28;20624;-56
2021/03/11 08:09:53;;;;;;;3.00;2.77;;;11.50;89.30;;;;;;5080060;28;20746;-54
2021/03/11 08:12:34;;;;;;;3.23;2.97;;;11.50;89.50;;;;;;5091153;28;20640;-53
2021/03/11 08:15:02;;;;;;;4.67;4.10;;;11.60;89.60;;;;;;5083603;28;20620;-56
2021/03/11 08:17:40;;;;;;;5.70;3.80;;;11.60;89.60;;;;;;5090384;28;21095;-55
2021/03/11 08:20:38;;;;;;;3.70;3.33;;;11.60;89.60;;;;;;5089489;28;20628;-57
2021/03/11 08:23:11;;;;;;;3.77;3.40;;;11.60;89.10;;;;;;5079793;28;20617;-54
2021/03/11 08:25:45;;;;;;;3.57;3.00;;;11.60;90.00;;;;;;5088234;28;20656;-55
2021/03/11 08:28:48;;;;;;;5.50;5.00;;;11.70;90.00;;;;;;5072683;28;20717;-56
2021/03/11 08:31:15;;;;;;;4.13;3.70;;;11.70;89.30;;;;;;5070135;28;20617;-54
2021/03/11 08:33:46;;;;;;;4.93;3.40;;;11.60;89.60;;;;;;5070792;28;20621;-54
2021/03/11 08:36:33;;;;;;;4.43;3.60;;;11.60;90.00;;;;;;5069949;28;20653;-53
2021/03/11 08:39:01;;;;;;;5.07;3.10;;;11.60;90.10;;;;;;5060677;28;20653;-55
2021/03/11 08:41:31;;;;;;;6.20;4.17;;;11.70;90.20;;;;;;5075896;28;20951;-54
2021/03/11 08:43:58;;;;;;;4.63;3.73;;;11.70;90.20;;;;;;5090120;28;20983;-54
2021/03/11 08:46:46;;;;;;;5.17;4.67;;;11.70;90.20;;;;;;5088489;28;20845;-54
2021/03/11 08:49:13;;;;;;;5.93;4.10;;;11.70;90.20;;;;;;5089869;28;20652;-54
2021/03/11 08:51:40;;;;;;;3.57;3.27;;;11.60;90.40;;;;;;5090067;28;20918;-56
2021/03/11 08:54:09;;;;;;;4.10;3.60;;;11.60;90.80;;;;;;5090352;28;20677;-54
2021/03/11 08:56:42;;;;;;;5.17;3.70;;;11.60;90.90;;;;;;5090341;28;20660;-55
2021/03/11 08:59:11;;;;;;;4.93;3.97;;;11.60;90.90;;;;;;5089617;28;20710;-54
2021/03/11 09:01:39;;;;;;;4.80;2.77;;;11.70;91.00;;;;;;5089598;28;20621;-53
2021/03/11 09:04:07;;;;;;;6.53;3.70;;;11.70;91.00;;;;;;5089708;28;20677;-55
2021/03/11 09:06:49;;;;;;;3.37;3.07;;;11.70;90.80;;;;;;5089778;28;21198;-55
2021/03/11 09:09:17;;;;;;;3.70;3.40;;;11.80;90.80;;;;;;5089604;28;20714;-55
2021/03/11 09:11:54;;;;;;;3.77;3.47;;;11.80;90.90;;;;;;5088698;28;21020;-57
2021/03/11 09:14:21;;;;;;;5.20;4.00;;;11.70;90.90;;;;;;5072184;28;20636;-55
2021/03/11 09:16:48;;;;;;;4.70;4.30;;;11.70;91.00;;;;;;5068344;28;20665;-54
2021/03/11 09:19:15;;;;;;;4.73;4.23;;;11.70;91.20;;;;;;5071477;28;21154;-55
2021/03/11 09:21:42;;;;;;;3.93;3.40;;;11.70;91.50;;;;;;5073816;28;20629;-54
2021/03/11 09:24:17;;;;;;;6.00;3.93;;;11.60;91.80;;;;;;5073502;28;20686;-56
2021/03/11 09:26:44;;;;;;;8.20;3.43;;;11.60;92.10;;;;;;5073733;28;20624;-56
2021/03/11 09:29:15;;;;;;;4.80;3.30;;;11.60;92.20;;;;;;5074501;28;20664;-55
2021/03/11 09:31:45;;;;;;;3.87;3.30;;;11.70;92.40;;;;;;5075145;28;20660;-54
2021/03/11 09:34:12;;;;;;;3.53;3.17;;;11.80;92.30;;;;;;5074979;28;20605;-55
2021/03/11 09:36:48;;;;;;;5.37;2.83;;;11.80;92.10;;;;;;5073615;28;20649;-54
2021/03/11 09:39:15;;;;;;;5.37;3.70;;;11.90;92.30;;;;;;5073905;28;20654;-54
2021/03/11 09:41:43;;;;;;;4.23;3.40;;;11.90;92.20;;;;;;5082075;28;20645;-53
2021/03/11 09:44:10;;;;;;;4.33;3.27;;;11.90;92.10;;;;;;5094016;28;20624;-53
2021/03/11 09:46:37;;;;;;;5.17;3.80;;;12.00;92.00;;;;;;5094094;28;20628;-54
2021/03/11 09:49:04;;;;;;;6.67;4.73;;;11.90;92.00;;;;;;5088353;28;20648;-56
2021/03/11 09:51:31;;;;;;;3.63;3.20;;;11.90;92.20;;;;;;5073353;28;20682;-54
2021/03/11 09:53:58;;;;;;;5.13;4.23;;;11.90;92.40;;;;;;5073621;28;21254;-54
2021/03/11 09:56:26;;;;;;;3.97;3.13;;;12.00;92.50;;;;;;5073263;28;20661;-55
2021/03/11 09:58:55;;;;;;;3.30;3.00;;;11.90;92.70;;;;;;5073621;28;20737;-54
2021/03/11 10:01:24;;;;;;;4.20;3.80;;;12.00;92.80;;;;;;5074724;28;20655;-56
2021/03/11 10:03:51;;;;;;;3.70;3.40;;;11.90;93.00;;;;;;5073072;28;20735;-53
2021/03/11 10:06:19;;;;;;;3.87;3.57;;;11.90;93.20;;;;;;5073961;28;20709;-54
2021/03/11 10:08:47;;;;;;;5.63;3.33;;;11.90;93.50;;;;;;5071535;28;20648;-55
2021/03/11 10:11:15;;;;;;;7.20;3.90;;;11.80;93.60;;;;;;5072835;28;20716;-54
2021/03/11 10:13:50;;;;;;;2.67;2.37;;;11.80;93.70;;;;;;5094203;28;20677;-53
2021/03/11 10:16:39;;;;;;;3.97;2.87;;;11.80;94.30;;;;;;5094186;28;20660;-53
2021/03/11 10:19:07;;;;;;;4.50;3.70;;;11.80;94.00;;;;;;5092710;28;20656;-54
2021/03/11 10:21:46;;;;;;;4.90;4.50;;;11.80;93.80;;;;;;5093124;28;20624;-54
2021/03/11 10:24:13;;;;;;;4.30;3.67;;;11.80;93.90;;;;;;5092902;28;20995;-56
2021/03/11 10:26:43;;;;;;;4.70;3.30;;;11.80;94.00;;;;;;5093392;28;20682;-53
2021/03/11 10:29:17;;;;;;;3.90;3.47;;;11.80;94.00;;;;;;5093347;28;20651;-55
2021/03/11 10:31:48;;;;;;;5.37;3.70;;;11.80;94.20;;;;;;5093396;28;21157;-56
2021/03/11 10:34:15;;;;;;;3.23;2.90;;;11.70;94.40;;;;;;5093542;28;20624;-54
2021/03/11 10:36:41;;;;;;;4.13;2.80;;;11.70;94.50;;;;;;5093301;28;20711;-54
2021/03/11 10:39:10;;;;;;;3.20;2.90;;;11.70;94.70;;;;;;5091113;28;20718;-55
2021/03/11 10:41:39;;;;;;;4.93;3.97;;;11.70;94.80;;;;;;5092299;28;20620;-54
2021/03/11 10:44:12;;;;;;;3.90;2.83;;;11.60;95.00;;;;;;5093835;28;20651;-55
2021/03/11 10:46:40;;;;;;;4.40;3.03;;;11.70;95.20;;;;;;5094882;28;21076;-55
2021/03/11 10:49:08;;;;;;;4.67;3.67;;;11.70;95.20;;;;;;5092261;28;20664;-55
2021/03/11 10:51:35;;;;;;;3.10;2.90;;;11.70;95.50;;;;;;5094120;28;20665;-56
2021/03/11 10:54:03;;;;;;;4.47;2.60;;;11.70;95.60;;;;;;5092825;28;20628;-57
2021/03/11 10:56:30;;;;;;;4.20;3.80;;;11.70;95.70;;;;;;5091979;28;21092;-53
2021/03/11 10:59:02;;;;;;;3.70;3.33;;;11.70;95.80;;;;;;5092874;28;21211;-54
2021/03/11 11:01:29;;;;;;;5.20;4.80;;;11.70;95.90;;;;;;5091790;28;21299;-54
2021/03/11 11:03:57;;;;;;;5.13;3.50;;;11.80;96.00;;;;;;5093614;28;21184;-53
2021/03/11 11:06:25;;;;;;;4.37;3.77;;;11.80;96.00;;;;;;5091760;28;20644;-53
2021/03/11 11:08:52;;;;;;;3.60;3.30;;;11.90;96.30;;;;;;5094119;28;20676;-57
2021/03/11 11:11:20;;;;;;;4.77;2.20;;;12.00;96.00;;;;;;5093414;28;20633;-54
2021/03/11 11:13:47;;;;;;;1.90;1.80;;;12.10;95.70;;;;;;5091587;28;20631;-54
2021/03/11 11:16:15;;;;;;;2.23;1.97;;;12.10;95.30;;;;;;5092252;28;20694;-55
2021/03/11 11:18:42;;;;;;;2.10;1.80;;;12.40;95.00;;;;;;5093286;28;20672;-56
2021/03/11 11:21:09;;;;;;;8.93;1.70;;;12.50;94.30;;;;;;5093293;28;21132;-55
2021/03/11 11:23:37;;;;;;;1.63;1.53;;;12.70;94.00;;;;;;5091658;28;20627;-54
2021/03/11 11:26:04;;;;;;;1.47;1.10;;;12.90;93.60;;;;;;5091547;28;20692;-55
2021/03/11 11:28:32;;;;;;;2.40;1.90;;;13.00;93.10;;;;;;5091343;28;20655;-54
2021/03/11 11:31:01;;;;;;;1.70;1.60;;;13.10;93.00;;;;;;5092519;28;20627;-55
2021/03/11 11:33:29;;;;;;;3.00;1.70;;;13.10;93.00;;;;;;5092840;28;20637;-55
2021/03/11 11:35:56;;;;;;;3.50;2.00;;;13.10;93.20;;;;;;5091790;28;20631;-54
2021/03/11 11:38:23;;;;;;;1.63;1.40;;;13.10;93.20;;;;;;5090845;28;21303;-55
2021/03/11 11:40:51;;;;;;;2.03;1.83;;;13.10;93.20;;;;;;5092672;28;20709;-54
2021/03/11 11:43:18;;;;;;;4.00;1.70;;;13.10;93.50;;;;;;5092219;28;20746;-55
2021/03/11 11:45:46;;;;;;;2.20;2.10;;;13.10;93.20;;;;;;5091149;28;20664;-55
2021/03/11 11:48:13;;;;;;;3.10;2.00;;;13.10;93.00;;;;;;5091533;28;20652;-55
2021/03/11 11:50:40;;;;;;;2.90;2.20;;;13.10;92.90;;;;;;5092265;28;20628;-54
2021/03/11 11:53:07;;;;;;;3.47;1.60;;;13.20;92.70;;;;;;5092022;28;20646;-55
2021/03/11 11:55:34;;;;;;;1.43;1.33;;;13.20;92.60;;;;;;5091465;28;20639;-54
2021/03/11 11:58:02;;;;;;;1.97;1.73;;;13.30;92.60;;;;;;5090562;28;20726;-54
2021/03/11 12:00:35;;;;;;;1.93;1.83;;;13.30;92.50;;;;;;5090011;28;21203;-55
2021/03/11 12:03:01;;;;;;;2.60;1.47;;;13.20;92.50;;;;;;5090757;28;20743;-54
2021/03/11 12:05:28;;;;;;;3.50;1.97;;;13.20;92.60;;;;;;5090764;28;20623;-54
2021/03/11 12:07:55;;;;;;;1.20;1.03;;;13.30;92.70;;;;;;5090458;28;20624;-54
2021/03/11 12:10:22;;;;;;;2.60;1.60;;;13.30;92.70;;;;;;5090137;28;20631;-55
2021/03/11 12:12:49;;;;;;;2.17;1.97;;;13.30;92.70;;;;;;5088312;28;20628;-53
2021/03/11 12:15:17;;;;;;;3.27;1.40;;;13.30;92.60;;;;;;5090438;28;20683;-54
2021/03/11 12:17:43;;;;;;;1.80;1.57;;;13.30;92.70;;;;;;5089993;28;20783;-56
2021/03/11 12:20:12;;;;;;;2.13;1.37;;;13.30;92.70;;;;;;5090923;28;20739;-54
2021/03/11 12:22:42;;;;;;;1.70;1.23;;;13.30;92.90;;;;;;5090671;28;20743;-55
2021/03/11 12:25:10;;;;;;;2.47;2.13;;;13.40;93.10;;;;;;5090743;28;20713;-55
2021/03/11 12:27:37;;;;;;;1.63;1.53;;;13.30;93.20;;;;;;5089592;28;20995;-54
2021/03/11 12:30:05;;;;;;;2.23;1.73;;;13.30;93.30;;;;;;5090231;28;20667;-54
2021/03/11 12:32:32;;;;;;;3.67;2.13;;;13.30;93.30;;;;;;5090406;28;20638;-55
2021/03/11 12:34:59;;;;;;;2.43;2.10;;;13.30;93.30;;;;;;5090684;28;20628;-55
2021/03/11 12:37:26;;;;;;;1.63;1.53;;;13.30;93.20;;;;;;5089854;28;21208;-55
2021/03/11 12:39:53;;;;;;;1.93;1.43;;;13.40;92.80;;;;;;5089019;28;20693;-54
2021/03/11 12:42:20;;;;;;;2.77;1.90;;;13.40;92.70;;;;;;5090600;28;20692;-54
2021/03/11 12:44:47;;;;;;;1.40;1.30;;;13.40;92.60;;;;;;5088185;28;20656;-52
2021/03/11 12:47:15;;;;;;;1.63;1.53;;;13.40;93.10;;;;;;5089774;28;20638;-56
2021/03/11 12:49:45;;;;;;;2.87;1.73;;;13.40;93.70;;;;;;5090470;28;20644;-55
2021/03/11 12:52:12;;;;;;;3.23;2.20;;;13.30;94.20;;;;;;5088882;28;20625;-54